Time;durP1;ratioP1;P1;durP2;ratioP2;P2;SDS_P1;SDS_P2;PMS_P1;PMS_P2;Temp;Humidity;BMP_temperature;BMP_pressure;BME280_temperature;BME280_humidity;BME280_pressure;Samples;Min_cycle;Max_cycle;Signal;HPM_P1;HPM_P2
2021/05/22 00:02:48;;;;;;;0.30;0.30;;;;;;;7.22;100.00;97860.50;5016159;28;20065;-87
2021/05/22 00:05:52;;;;;;;0.30;0.30;;;;;;;7.22;100.00;97879.88;5015560;28;20711;-86
2021/05/22 00:08:55;;;;;;;0.30;0.30;;;;;;;7.20;100.00;97876.84;5014681;28;20053;-84
2021/05/22 00:11:58;;;;;;;0.28;0.28;;;;;;;7.19;100.00;97880.13;5014248;28;20057;-84
2021/05/22 00:15:06;;;;;;;0.73;0.57;;;;;;;7.16;100.00;97884.66;5024866;28;20060;-83
2021/05/22 00:18:10;;;;;;;0.47;0.20;;;;;;;7.13;100.00;97885.63;5034044;28;20056;-83
2021/05/22 00:21:14;;;;;;;0.10;0.10;;;;;;;7.09;100.00;97898.19;5022536;28;20053;-84
2021/05/22 00:24:19;;;;;;;0.28;0.20;;;;;;;7.08;100.00;97902.97;5021647;28;20060;-85
2021/05/22 00:27:23;;;;;;;0.40;0.40;;;;;;;7.05;100.00;97915.06;5035178;28;20750;-84
2021/05/22 00:30:26;;;;;;;0.20;0.20;;;;;;;7.03;100.00;97900.97;5033525;28;20053;-84
2021/05/22 00:33:29;;;;;;;0.22;0.22;;;;;;;7.01;100.00;97909.00;5021965;28;20056;-83
2021/05/22 00:36:33;;;;;;;0.25;0.25;;;;;;;7.01;100.00;97917.31;5021960;28;20060;-82
2021/05/22 00:39:37;;;;;;;0.47;0.47;;;;;;;6.99;100.00;97922.59;5033787;28;20057;-81
2021/05/22 00:42:41;;;;;;;1.55;0.43;;;;;;;6.96;100.00;97920.06;5033918;28;20500;-82
2021/05/22 00:45:45;;;;;;;0.22;0.22;;;;;;;6.92;100.00;97931.38;5033617;28;20084;-82
2021/05/22 00:48:49;;;;;;;0.47;0.47;;;;;;;6.92;100.00;97928.59;5033303;28;20053;-81
2021/05/22 00:51:53;;;;;;;0.88;0.50;;;;;;;6.88;100.00;97933.63;5020818;28;20051;-81
2021/05/22 00:54:56;;;;;;;0.17;0.17;;;;;;;6.88;100.00;97944.69;5032463;28;20061;-82
2021/05/22 00:58:03;;;;;;;0.57;0.57;;;;;;;6.85;100.00;97945.66;5033112;28;20060;-81
2021/05/22 01:01:06;;;;;;;0.50;0.50;;;;;;;6.81;100.00;97951.44;5033424;28;20057;-81
2021/05/22 01:04:10;;;;;;;0.55;0.55;;;;;;;6.79;100.00;97947.66;5020735;28;20799;-82
2021/05/22 01:07:14;;;;;;;1.00;1.00;;;;;;;6.74;100.00;97956.69;5021069;28;20068;-80
2021/05/22 01:10:18;;;;;;;1.45;0.38;;;;;;;6.70;100.00;97953.41;5031944;28;20056;-81
2021/05/22 01:13:21;;;;;;;1.85;0.82;;;;;;;6.67;100.00;97960.66;5033259;28;20052;-81
2021/05/22 01:16:25;;;;;;;0.40;0.40;;;;;;;6.65;100.00;97973.47;5012750;28;20056;-81
2021/05/22 01:19:56;;;;;;;0.50;0.50;;;;;;;6.61;100.00;97964.66;5013224;28;20053;-81
2021/05/22 01:23:04;;;;;;;0.30;0.30;;;;;;;6.57;100.00;97975.19;5013290;28;20061;-81
2021/05/22 01:26:09;;;;;;;0.55;0.55;;;;;;;6.55;100.00;97980.47;5013026;28;20065;-80
2021/05/22 01:29:14;;;;;;;0.52;0.50;;;;;;;6.51;100.00;97983.47;4981522;28;20061;-81
2021/05/22 01:32:18;;;;;;;0.60;0.60;;;;;;;6.49;100.00;97985.97;4992508;28;20580;-82
2021/05/22 01:35:22;;;;;;;0.68;0.50;;;;;;;6.48;100.00;97994.75;4980715;28;20061;-81
2021/05/22 01:38:25;;;;;;;0.45;0.45;;;;;;;6.45;100.00;98002.03;4993315;28;20077;-81
2021/05/22 01:41:29;;;;;;;0.50;0.50;;;;;;;6.44;100.00;97999.75;4992677;28;20057;-80
2021/05/22 01:44:36;;;;;;;0.50;0.50;;;;;;;6.42;100.00;98007.78;4992626;28;20549;-81
2021/05/22 01:47:43;;;;;;;11.70;0.70;;;;;;;6.37;100.00;98011.25;4970711;28;20049;-82
2021/05/22 01:50:50;;;;;;;0.43;0.43;;;;;;;6.31;100.00;98014.00;4992835;28;20061;-81
2021/05/22 01:53:53;;;;;;;0.55;0.55;;;;;;;6.28;100.00;98011.47;4992460;28;20053;-81
2021/05/22 01:56:59;;;;;;;0.57;0.50;;;;;;;6.24;100.00;98022.00;4991923;28;20072;-81
2021/05/22 02:00:09;;;;;;;1.17;1.05;;;;;;;6.23;100.00;98034.28;4980103;28;20053;-81
2021/05/22 02:03:25;;;;;;;0.40;0.40;;;;;;;6.20;100.00;98030.47;4992528;28;20053;-80
2021/05/22 02:06:35;;;;;;;0.52;0.52;;;;;;;6.16;100.00;98046.53;4990579;28;20069;-81
2021/05/22 02:09:39;;;;;;;1.23;0.30;;;;;;;6.15;100.00;98039.47;4991866;28;20505;-81
2021/05/22 02:12:45;;;;;;;0.40;0.40;;;;;;;6.13;100.00;98045.50;4992504;28;20062;-81
2021/05/22 02:15:58;;;;;;;0.50;0.50;;;;;;;6.12;100.00;98043.25;5008756;28;20061;-82
2021/05/22 02:19:07;;;;;;;0.40;0.40;;;;;;;6.09;100.00;98050.50;5011704;28;20057;-82
2021/05/22 02:22:16;;;;;;;0.43;0.43;;;;;;;6.06;100.00;98056.97;5000275;28;20057;-84
2021/05/22 02:25:19;;;;;;;0.30;0.30;;;;;;;6.05;100.00;98066.53;5011470;28;20057;-83
2021/05/22 02:28:30;;;;;;;0.70;0.70;;;;;;;6.04;100.00;98062.25;5018001;28;20060;-83
2021/05/22 02:31:39;;;;;;;0.85;0.50;;;;;;;6.04;100.00;98064.28;5030904;28;20057;-83
2021/05/22 02:34:48;;;;;;;0.75;0.55;;;;;;;6.01;100.00;98068.75;5019266;28;20409;-82
2021/05/22 02:37:55;;;;;;;6.40;0.57;;;;;;;5.98;100.00;98064.19;5031650;28;20052;-82
2021/05/22 02:41:02;;;;;;;0.30;0.30;;;;;;;5.97;100.00;98073.75;5019023;28;20414;-81
2021/05/22 02:44:06;;;;;;;0.70;0.70;;;;;;;5.93;100.00;98067.66;5031314;28;20406;-82
2021/05/22 02:47:10;;;;;;;0.35;0.35;;;;;;;5.94;100.00;98083.00;5031646;28;20076;-82
2021/05/22 02:50:16;;;;;;;0.30;0.30;;;;;;;5.94;100.00;98085.00;5031182;28;20057;-81
2021/05/22 02:53:22;;;;;;;0.43;0.32;;;;;;;5.91;100.00;98086.72;5018471;28;20056;-83
2021/05/22 02:56:28;;;;;;;0.45;0.45;;;;;;;5.90;100.00;98090.75;5030897;28;20520;-82
2021/05/22 02:59:32;;;;;;;0.50;0.50;;;;;;;5.91;100.00;98094.28;5030837;28;20059;-81
2021/05/22 03:02:38;;;;;;;0.50;0.50;;;;;;;5.88;100.00;98100.78;5031187;28;20053;-81
2021/05/22 03:05:41;;;;;;;1.42;1.35;;;;;;;5.84;100.00;98098.22;5031259;28;20141;-82
2021/05/22 03:08:47;;;;;;;0.85;0.63;;;;;;;5.85;100.00;98110.00;5030792;28;20072;-82
2021/05/22 03:11:51;;;;;;;0.50;0.50;;;;;;;5.83;100.00;98104.19;5018787;28;20048;-81
2021/05/22 03:14:54;;;;;;;0.40;0.40;;;;;;;5.82;100.00;98111.75;5021391;28;20049;-81
2021/05/22 03:17:58;;;;;;;0.55;0.55;;;;;;;5.80;100.00;98105.94;5011190;28;20056;-82
2021/05/22 03:21:01;;;;;;;0.55;0.55;;;;;;;5.76;100.00;98113.66;4998351;28;20073;-81
2021/05/22 03:24:06;;;;;;;0.20;0.20;;;;;;;5.74;100.00;98116.16;5010969;28;20061;-82
2021/05/22 03:27:09;;;;;;;0.25;0.25;;;;;;;5.73;100.00;98120.16;4998421;28;20064;-82
2021/05/22 03:30:13;;;;;;;1.55;1.05;;;;;;;5.74;100.00;98127.19;4998879;28;20537;-81
2021/05/22 03:33:17;;;;;;;0.25;0.25;;;;;;;5.74;100.00;98134.75;5009704;28;20072;-82
2021/05/22 03:36:21;;;;;;;0.68;0.43;;;;;;;5.69;100.00;98138.97;5011198;28;20061;-82
2021/05/22 03:39:24;;;;;;;1.10;0.30;;;;;;;5.69;100.00;98141.72;5010722;28;20045;-82
2021/05/22 03:42:28;;;;;;;0.55;0.55;;;;;;;5.67;100.00;98148.97;4998250;28;20069;-83
2021/05/22 03:45:32;;;;;;;0.60;0.60;;;;;;;5.68;100.00;98145.72;4997773;28;20061;-82
2021/05/22 03:48:35;;;;;;;0.30;0.30;;;;;;;5.66;100.00;98153.72;5010148;28;20057;-81
2021/05/22 03:51:39;;;;;;;0.55;0.55;;;;;;;5.64;100.00;98147.91;5010810;28;20057;-81
2021/05/22 03:54:44;;;;;;;0.82;0.22;;;;;;;5.63;100.00;98151.91;4998733;28;20057;-82
2021/05/22 03:57:48;;;;;;;0.30;0.30;;;;;;;5.62;100.00;98158.69;5010420;28;20053;-81
2021/05/22 04:00:51;;;;;;;0.40;0.40;;;;;;;5.62;100.00;98164.22;5011283;28;20057;-81
2021/05/22 04:03:54;;;;;;;0.22;0.22;;;;;;;5.62;100.00;98169.75;5010789;28;20049;-82
2021/05/22 04:06:58;;;;;;;0.30;0.30;;;;;;;5.63;100.00;98176.75;5010543;28;20378;-82
2021/05/22 04:10:02;;;;;;;0.20;0.20;;;;;;;5.62;100.00;98169.75;5009857;28;20069;-82
2021/05/22 04:13:06;;;;;;;0.40;0.40;;;;;;;5.63;100.00;98168.47;5010539;28;20057;-82
2021/05/22 04:16:09;;;;;;;0.57;0.57;;;;;;;5.60;100.00;98175.00;5010564;28;20073;-82
2021/05/22 04:19:13;;;;;;;0.30;0.30;;;;;;;5.62;100.00;98185.53;5010637;28;20056;-82
2021/05/22 04:22:16;;;;;;;0.30;0.30;;;;;;;5.61;100.00;98190.28;5010208;28;20061;-83
2021/05/22 04:25:20;;;;;;;0.45;0.45;;;;;;;5.62;100.00;98202.88;4997318;28;20057;-83
2021/05/22 04:28:24;;;;;;;1.05;0.93;;;;;;;5.61;100.00;98206.88;5016341;28;20049;-82
2021/05/22 04:31:28;;;;;;;0.47;0.47;;;;;;;5.62;100.00;98211.16;5028988;28;20409;-82
2021/05/22 04:34:32;;;;;;;0.30;0.30;;;;;;;5.59;100.00;98203.81;5028370;28;20065;-82
2021/05/22 04:37:35;;;;;;;1.98;1.00;;;;;;;5.58;100.00;98213.38;5029478;28;20052;-81
2021/05/22 04:40:39;;;;;;;0.30;0.30;;;;;;;5.59;100.00;98209.34;5030063;28;20060;-82
2021/05/22 04:43:42;;;;;;;0.20;0.20;;;;;;;5.60;100.00;98215.63;5031861;28;20057;-82
2021/05/22 04:46:46;;;;;;;1.48;0.57;;;;;;;5.59;100.00;98217.63;5033329;28;20076;-82
2021/05/22 04:49:49;;;;;;;0.28;0.28;;;;;;;5.64;100.00;98224.47;5033363;28;20052;-84
2021/05/22 04:52:52;;;;;;;0.40;0.40;;;;;;;5.64;100.00;98232.75;5021443;28;20532;-82
2021/05/22 04:55:56;;;;;;;0.70;0.70;;;;;;;5.65;100.00;98228.78;5033345;28;20056;-82
2021/05/22 04:59:00;;;;;;;0.35;0.35;;;;;;;5.69;100.00;98234.84;5021043;28;20056;-82
2021/05/22 05:02:03;;;;;;;0.82;0.82;;;;;;;5.71;100.00;98233.13;5033742;28;20056;-82
2021/05/22 05:05:08;;;;;;;0.40;0.40;;;;;;;5.73;100.00;98236.16;5033034;28;20417;-82
2021/05/22 05:08:18;;;;;;;0.32;0.32;;;;;;;5.75;100.00;98252.25;5032920;28;20505;-83
2021/05/22 05:11:22;;;;;;;0.32;0.32;;;;;;;5.78;100.00;98259.56;5032103;28;20405;-82
2021/05/22 05:14:25;;;;;;;0.47;0.47;;;;;;;5.82;100.00;98260.91;5015369;28;20069;-82
2021/05/22 05:17:29;;;;;;;0.30;0.30;;;;;;;5.84;100.00;98263.97;5012667;28;20053;-82
2021/05/22 05:20:33;;;;;;;0.40;0.40;;;;;;;5.90;100.00;98273.06;5012652;28;20052;-83
2021/05/22 05:23:36;;;;;;;0.30;0.30;;;;;;;5.92;100.00;98278.13;5012370;28;20057;-82
2021/05/22 05:26:40;;;;;;;0.30;0.30;;;;;;;5.95;100.00;98285.44;5016393;28;20052;-82
2021/05/22 05:29:43;;;;;;;0.22;0.22;;;;;;;5.92;100.00;98284.41;5020657;28;20064;-83
2021/05/22 05:32:47;;;;;;;0.30;0.25;;;;;;;5.93;100.00;98291.44;5020548;28;20053;-82
2021/05/22 05:35:51;;;;;;;0.30;0.30;;;;;;;5.94;100.00;98295.72;5020304;28;20076;-81
2021/05/22 05:38:55;;;;;;;0.40;0.40;;;;;;;5.91;100.00;98282.88;5032784;28;20060;-82
2021/05/22 05:41:58;;;;;;;0.20;0.20;;;;;;;5.90;100.00;98278.59;5032431;28;20064;-83
2021/05/22 05:45:03;;;;;;;0.50;0.50;;;;;;;5.88;100.00;98289.38;5032206;28;20052;-82
2021/05/22 05:48:08;;;;;;;0.30;0.30;;;;;;;5.89;100.00;98290.88;5018521;28;20052;-83
2021/05/22 05:51:11;;;;;;;0.30;0.30;;;;;;;5.91;100.00;98295.94;5032506;28;20053;-83
2021/05/22 05:54:15;;;;;;;0.13;0.13;;;;;;;5.96;100.00;98309.81;5018426;28;20533;-81
2021/05/22 05:57:18;;;;;;;0.40;0.20;;;;;;;6.02;100.00;98313.41;5031836;28;20568;-81
2021/05/22 06:00:23;;;;;;;0.10;0.10;;;;;;;6.10;100.00;98320.06;5021020;28;20068;-85
2021/05/22 06:03:28;;;;;;;0.38;0.38;;;;;;;6.19;100.00;98321.94;5031928;28;20516;-83
2021/05/22 06:06:32;;;;;;;0.30;0.30;;;;;;;6.26;100.00;98321.50;5020033;28;20052;-82
2021/05/22 06:09:35;;;;;;;0.15;0.15;;;;;;;6.31;100.00;98333.88;5032300;28;20057;-82
2021/05/22 06:12:40;;;;;;;0.20;0.20;;;;;;;6.36;100.00;98335.97;5032103;28;20508;-83
2021/05/22 06:15:48;;;;;;;0.20;0.20;;;;;;;6.40;100.00;98339.28;5031893;28;20521;-84
2021/05/22 06:18:53;;;;;;;0.30;0.30;;;;;;;6.42;100.00;98347.84;5032625;28;20271;-83
2021/05/22 06:21:57;;;;;;;0.20;0.20;;;;;;;6.48;100.00;98348.69;5031895;28;20060;-82
2021/05/22 06:25:01;;;;;;;0.28;0.28;;;;;;;6.55;100.00;98348.25;5031591;28;20505;-82
2021/05/22 06:28:04;;;;;;;0.20;0.20;;;;;;;6.70;100.00;98346.19;5030857;28;20056;-82
2021/05/22 06:31:07;;;;;;;0.10;0.10;;;;;;;6.83;100.00;98358.41;5031257;28;20052;-83
2021/05/22 06:34:11;;;;;;;0.30;0.30;;;;;;;7.09;100.00;98361.19;5031446;28;20064;-82
2021/05/22 06:37:14;;;;;;;0.22;0.22;;;;;;;7.46;100.00;98375.91;5030838;28;20429;-82
2021/05/22 06:40:18;;;;;;;0.20;0.20;;;;;;;7.65;100.00;98373.53;5029895;28;20056;-83
2021/05/22 06:43:22;;;;;;;0.30;0.30;;;;;;;7.67;100.00;98373.06;5029377;28;20057;-82
2021/05/22 06:49:33;;;;;;;0.30;0.30;;;;;;;7.82;100.00;98382.00;5030566;28;20056;-83
2021/05/22 06:52:36;;;;;;;1.95;0.17;;;;;;;7.70;100.00;98383.91;5030884;28;20423;-83
2021/05/22 06:55:40;;;;;;;0.25;0.20;;;;;;;7.57;100.00;98387.06;5030575;28;20056;-83
2021/05/22 06:58:43;;;;;;;0.10;0.10;;;;;;;7.56;100.00;98390.31;5019201;28;20045;-83
2021/05/22 07:01:48;;;;;;;0.10;0.00;;;;;;;7.60;100.00;98393.66;5031925;28;20056;-83
2021/05/22 07:04:52;;;;;;;0.10;0.10;;;;;;;7.57;100.00;98395.38;5019323;28;20409;-83
2021/05/22 07:07:55;;;;;;;0.80;0.20;;;;;;;7.53;100.00;98403.16;5029458;28;20062;-83
2021/05/22 07:10:59;;;;;;;0.10;0.10;;;;;;;7.43;100.00;98406.56;5031125;28;20052;-83
2021/05/22 07:14:03;;;;;;;0.10;0.10;;;;;;;7.32;100.00;98406.47;5018962;28;20531;-83
2021/05/22 07:17:06;;;;;;;0.20;0.20;;;;;;;7.23;100.00;98407.41;5031062;28;20528;-83
2021/05/22 07:20:10;;;;;;;0.10;0.10;;;;;;;7.22;100.00;98421.72;5018814;28;20048;-83
2021/05/22 07:23:13;;;;;;;0.20;0.20;;;;;;;7.21;100.00;98417.44;5018757;28;20057;-82
2021/05/22 07:26:17;;;;;;;0.10;0.10;;;;;;;7.21;100.00;98429.25;5017004;28;20052;-83
2021/05/22 07:29:21;;;;;;;0.10;0.10;;;;;;;7.17;100.00;98425.19;5010597;28;20065;-84
2021/05/22 07:32:24;;;;;;;0.30;0.30;;;;;;;7.12;100.00;98440.50;5011026;28;20525;-83
2021/05/22 07:35:28;;;;;;;0.28;0.28;;;;;;;7.04;100.00;98449.72;5011028;28;20053;-83
2021/05/22 07:38:31;;;;;;;0.10;0.00;;;;;;;7.04;100.00;98449.72;4999375;28;20056;-84
2021/05/22 07:41:36;;;;;;;0.20;0.20;;;;;;;7.06;100.00;98458.28;4999093;28;20065;-83
2021/05/22 07:44:40;;;;;;;0.20;0.20;;;;;;;7.07;100.00;98457.81;5010854;28;20061;-83
2021/05/22 07:47:44;;;;;;;0.55;0.55;;;;;;;7.09;100.00;98460.06;5010852;28;20053;-82
2021/05/22 07:50:47;;;;;;;0.20;0.20;;;;;;;7.16;100.00;98465.97;5010721;28;20529;-82
2021/05/22 07:53:51;;;;;;;0.70;0.40;;;;;;;7.29;100.00;98471.91;5011023;28;20057;-82
2021/05/22 07:56:54;;;;;;;0.40;0.40;;;;;;;7.44;100.00;98467.03;5011188;28;20061;-83
2021/05/22 07:59:58;;;;;;;4.13;0.82;;;;;;;7.64;100.00;98475.28;4997891;28;20061;-84
2021/05/22 08:03:01;;;;;;;0.32;0.15;;;;;;;7.73;100.00;98482.69;5011483;28;20529;-83
2021/05/22 08:06:05;;;;;;;0.20;0.20;;;;;;;7.76;100.00;98480.91;4998585;28;20072;-82
2021/05/22 08:09:08;;;;;;;0.10;0.10;;;;;;;7.81;100.00;98489.31;5010856;28;20053;-83
2021/05/22 08:12:12;;;;;;;0.40;0.10;;;;;;;7.78;100.00;98495.81;4998797;28;20045;-83
2021/05/22 08:15:15;;;;;;;1.27;0.20;;;;;;;7.82;100.00;98496.34;5010879;28;20080;-84
2021/05/22 08:18:19;;;;;;;0.20;0.20;;;;;;;7.86;100.00;98485.81;5011099;28;20691;-83
2021/05/22 08:21:23;;;;;;;0.13;0.13;;;;;;;7.91;100.00;98498.97;5002407;28;20049;-82
2021/05/22 08:24:26;;;;;;;1.90;0.20;;;;;;;8.01;100.00;98500.28;5014393;28;20057;-83
2021/05/22 08:27:30;;;;;;;0.32;0.20;;;;;;;8.05;100.00;98503.63;5012994;28;20529;-84
2021/05/22 08:30:35;;;;;;;0.63;0.40;;;;;;;8.16;100.00;98502.97;5021995;28;20052;-83
2021/05/22 08:33:39;;;;;;;0.10;0.10;;;;;;;8.33;100.00;98506.66;5034081;28;20401;-83
2021/05/22 08:36:42;;;;;;;0.10;0.10;;;;;;;8.34;100.00;98508.94;5035130;28;20513;-82
2021/05/22 08:39:47;;;;;;;0.30;0.28;;;;;;;8.22;100.00;98512.06;5025545;28;20052;-83
2021/05/22 08:42:51;;;;;;;0.10;0.10;;;;;;;8.21;100.00;98516.09;5039977;28;20052;-84
2021/05/22 08:45:55;;;;;;;0.20;0.20;;;;;;;8.23;100.00;98514.34;5032662;28;20409;-84
2021/05/22 08:48:59;;;;;;;0.10;0.10;;;;;;;8.37;100.00;98523.81;5032923;28;20064;-83
2021/05/22 08:52:02;;;;;;;0.10;0.10;;;;;;;8.41;100.00;98518.81;5021513;28;20064;-83
2021/05/22 08:55:07;;;;;;;1.00;0.30;;;;;;;8.46;100.00;98520.88;5033433;28;20048;-83
2021/05/22 08:58:10;;;;;;;0.10;0.10;;;;;;;8.40;100.00;98522.84;5033557;28;20056;-83
2021/05/22 09:01:14;;;;;;;0.10;0.10;;;;;;;8.35;100.00;98531.88;5022053;28;20489;-83
2021/05/22 09:04:17;;;;;;;0.20;0.20;;;;;;;8.31;100.00;98534.13;5032974;28;20056;-83
2021/05/22 09:07:22;;;;;;;0.22;0.22;;;;;;;8.31;100.00;98539.66;5021219;28;20056;-82
2021/05/22 09:10:35;;;;;;;0.30;0.30;;;;;;;8.32;100.00;98549.50;5033273;28;20053;-83
2021/05/22 09:13:38;;;;;;;2.92;0.30;;;;;;;8.31;100.00;98548.75;5021177;28;20056;-83
2021/05/22 09:16:42;;;;;;;1.42;0.30;;;;;;;8.37;100.00;98554.34;5013523;28;20053;-82
2021/05/22 09:19:46;;;;;;;0.20;0.17;;;;;;;8.46;100.00;98570.81;5012517;28;20068;-83
2021/05/22 09:22:58;;;;;;;0.20;0.20;;;;;;;8.63;100.00;98562.59;5013483;28;20056;-82
2021/05/22 09:26:12;;;;;;;2.42;0.40;;;;;;;8.86;100.00;98565.03;5013192;28;20061;-82
2021/05/22 09:29:25;;;;;;;0.10;0.10;;;;;;;9.00;100.00;98564.13;4993214;28;20057;-80
2021/05/22 09:32:29;;;;;;;0.25;0.25;;;;;;;9.15;100.00;98559.16;4982139;28;20061;-84
2021/05/22 09:35:32;;;;;;;0.47;0.30;;;;;;;9.46;100.00;98557.53;4993289;28;20065;-84
2021/05/22 09:38:49;;;;;;;0.10;0.10;;;;;;;9.45;100.00;98556.00;4990409;28;20057;-83
2021/05/22 09:42:05;;;;;;;0.10;0.10;;;;;;;9.35;100.00;98565.81;4965574;28;20053;-81
2021/05/22 09:45:30;;;;;;;1.23;0.10;;;;;;;9.33;100.00;98568.34;4968235;28;20046;-82
2021/05/22 09:48:36;;;;;;;0.20;0.20;;;;;;;9.27;100.00;98567.56;4967791;28;20061;-82
2021/05/22 09:51:56;;;;;;;0.10;0.08;;;;;;;9.13;100.00;98583.88;4970809;28;20061;-84
2021/05/22 09:55:01;;;;;;;0.25;0.20;;;;;;;8.95;100.00;98592.59;4985178;28;20061;-84
2021/05/22 09:58:04;;;;;;;0.73;0.30;;;;;;;8.88;100.00;98604.16;4992327;28;20533;-82
2021/05/22 10:01:09;;;;;;;0.10;0.10;;;;;;;8.86;100.00;98603.91;5001822;28;20049;-81
2021/05/22 10:04:18;;;;;;;0.20;0.20;;;;;;;8.95;100.00;98602.94;4996335;28;20533;-82
2021/05/22 10:07:34;;;;;;;0.20;0.10;;;;;;;8.91;100.00;98617.06;4981500;28;20057;-84
2021/05/22 10:10:41;;;;;;;0.20;0.10;;;;;;;8.86;100.00;98622.56;4992091;28;21056;-83
2021/05/22 10:13:45;;;;;;;0.13;0.13;;;;;;;8.84;100.00;98623.06;4992395;28;20045;-84
2021/05/22 10:16:49;;;;;;;0.20;0.20;;;;;;;8.86;100.00;98630.91;5012907;28;20537;-87
2021/05/22 10:19:53;;;;;;;0.20;0.13;;;;;;;8.88;100.00;98634.69;5003749;28;20053;-86
2021/05/22 10:22:56;;;;;;;7.43;0.68;;;;;;;9.00;100.00;98636.31;5012313;28;20138;-87
2021/05/22 10:26:00;;;;;;;7.47;1.05;;;;;;;8.91;100.00;98642.06;5011483;28;20073;-84
2021/05/22 10:29:04;;;;;;;0.32;0.32;;;;;;;8.84;100.00;98641.72;5010909;28;20061;-85
2021/05/22 10:32:18;;;;;;;2.15;0.50;;;;;;;8.73;100.00;98642.41;4999822;28;20531;-85
2021/05/22 10:35:24;;;;;;;0.40;0.40;;;;;;;8.60;100.00;98652.41;5011469;28;20068;-83
2021/05/22 10:38:33;;;;;;;0.95;0.40;;;;;;;8.71;100.00;98655.25;5012145;28;20061;-83
2021/05/22 10:41:38;;;;;;;0.40;0.40;;;;;;;9.03;100.00;98662.34;5011776;28;20065;-84
2021/05/22 10:44:41;;;;;;;0.50;0.30;;;;;;;9.41;100.00;98653.50;5002713;28;20069;-83
2021/05/22 10:47:45;;;;;;;0.43;0.38;;;;;;;9.67;100.00;98658.94;5012162;28;20061;-82
2021/05/22 10:50:49;;;;;;;0.50;0.50;;;;;;;9.96;100.00;98657.78;5003736;28;20052;-82
2021/05/22 10:54:00;;;;;;;0.20;0.20;;;;;;;10.26;100.00;98659.69;5019240;28;20061;-83
2021/05/22 10:57:07;;;;;;;0.55;0.40;;;;;;;10.58;100.00;98669.34;5012987;28;20056;-83
2021/05/22 11:00:14;;;;;;;0.52;0.28;;;;;;;10.59;100.00;98665.28;5011258;28;20422;-84
2021/05/22 11:03:18;;;;;;;2.10;1.05;;;;;;;10.46;100.00;98662.25;5011610;28;20057;-82
2021/05/22 11:06:47;;;;;;;0.68;0.55;;;;;;;10.27;100.00;98672.31;5011392;28;20057;-80
2021/05/22 11:09:52;;;;;;;0.55;0.35;;;;;;;9.98;100.00;98677.50;4999723;28;20076;-85
2021/05/22 11:12:55;;;;;;;0.17;0.10;;;;;;;9.75;100.00;98676.66;4999506;28;20053;-83
2021/05/22 11:16:02;;;;;;;0.77;0.50;;;;;;;9.65;100.00;98692.03;4998887;28;20386;-82
2021/05/22 11:19:06;;;;;;;0.52;0.10;;;;;;;9.67;100.00;98686.72;5011019;28;20065;-82
2021/05/22 11:22:16;;;;;;;0.50;0.20;;;;;;;9.88;100.00;98696.41;5010830;28;20053;-82
2021/05/22 11:25:22;;;;;;;0.20;0.20;;;;;;;10.04;100.00;98690.19;5010275;28;20056;-82
2021/05/22 11:28:25;;;;;;;0.47;0.47;;;;;;;10.37;100.00;98687.50;5029216;28;20083;-82
2021/05/22 11:31:32;;;;;;;0.20;0.10;;;;;;;10.53;100.00;98689.59;5018068;28;20521;-81
2021/05/22 11:34:37;;;;;;;0.30;0.20;;;;;;;10.47;100.00;98686.03;5018554;28;20071;-80
2021/05/22 11:37:41;;;;;;;0.38;0.32;;;;;;;10.28;100.00;98698.91;5018767;28;20056;-80
2021/05/22 11:40:45;;;;;;;0.17;0.17;;;;;;;10.13;100.00;98694.78;5030857;28;20072;-81
2021/05/22 11:43:48;;;;;;;0.20;0.10;;;;;;;10.20;100.00;98697.84;5030521;28;20129;-82
2021/05/22 11:46:52;;;;;;;1.10;0.40;;;;;;;10.16;100.00;98699.34;5029921;28;20060;-82
2021/05/22 11:49:57;;;;;;;1.70;0.30;;;;;;;10.38;100.00;98689.03;5029918;28;20060;-81
2021/05/22 11:53:12;;;;;;;0.52;0.40;;;;;;;10.50;100.00;98690.59;5030777;28;20056;-82
2021/05/22 11:56:17;;;;;;;0.10;0.10;;;;;;;10.50;100.00;98698.94;5019960;28;20053;-81
2021/05/22 11:59:20;;;;;;;1.65;0.47;;;;;;;10.72;100.00;98697.47;5019273;28;20044;-82
2021/05/22 12:02:53;;;;;;;0.10;0.10;;;;;;;10.81;100.00;98702.78;5034396;28;20053;-81
2021/05/22 12:05:57;;;;;;;0.10;0.10;;;;;;;10.83;100.00;98703.06;5005563;28;20060;-80
2021/05/22 12:09:10;;;;;;;0.43;0.30;;;;;;;10.98;100.00;98695.22;5003277;28;20061;-81
2021/05/22 12:12:13;;;;;;;0.20;0.20;;;;;;;11.10;100.00;98699.50;4992658;28;20045;-82
2021/05/22 12:15:24;;;;;;;0.30;0.28;;;;;;;11.44;100.00;98695.41;5004954;28;20701;-80
2021/05/22 12:18:27;;;;;;;0.30;0.10;;;;;;;11.78;100.00;98690.56;5004990;28;20063;-81
2021/05/22 12:21:32;;;;;;;2.40;0.20;;;;;;;11.77;100.00;98703.75;4994279;28;20060;-81
2021/05/22 12:24:36;;;;;;;2.60;0.20;;;;;;;11.61;100.00;98712.13;4994378;28;20048;-83
2021/05/22 12:27:42;;;;;;;0.25;0.20;;;;;;;11.20;100.00;98714.69;5002747;28;20057;-85
2021/05/22 12:30:46;;;;;;;9.02;0.82;;;;;;;10.79;100.00;98708.09;5008915;28;20390;-84
2021/05/22 12:34:08;;;;;;;3.70;0.73;;;;;;;10.38;100.00;98716.88;5013206;28;20804;-85
2021/05/22 12:37:20;;;;;;;5.57;1.50;;;;;;;9.99;100.00;98726.31;5001617;28;20048;-83
2021/05/22 12:40:24;;;;;;;1.52;0.45;;;;;;;9.69;100.00;98729.44;5005246;28;20691;-84
2021/05/22 12:43:52;;;;;;;0.85;0.38;;;;;;;9.38;100.00;98734.28;5001095;28;20496;-84
2021/05/22 12:47:03;;;;;;;0.90;0.30;;;;;;;9.26;100.00;98741.03;5011843;28;20061;-86
2021/05/22 12:50:10;;;;;;;1.30;0.43;;;;;;;9.31;100.00;98737.53;4998588;28;20397;-84
2021/05/22 12:53:13;;;;;;;1.15;0.82;;;;;;;9.69;100.00;98748.16;5014499;28;20045;-85
2021/05/22 12:56:17;;;;;;;0.75;0.63;;;;;;;10.29;100.00;98739.34;4987773;28;20045;-84
2021/05/22 12:59:22;;;;;;;3.78;1.48;;;;;;;10.91;100.00;98740.28;4993329;28;20041;-84
2021/05/22 13:02:30;;;;;;;1.45;0.63;;;;;;;11.43;100.00;98735.72;5007217;28;20065;-82
2021/05/22 13:05:36;;;;;;;1.95;0.22;;;;;;;11.99;100.00;98728.78;5009322;28;20044;-87
2021/05/22 13:08:40;;;;;;;0.77;0.40;;;;;;;12.21;100.00;98729.97;5016203;28;20073;-85
2021/05/22 13:12:01;;;;;;;1.80;0.20;;;;;;;12.45;100.00;98727.31;4984755;28;20064;-86
2021/05/22 13:15:14;;;;;;;;;;;;;;;13.06;100.00;98736.09;4983317;28;20052;-86
2021/05/22 13:18:30;;;;;;;0.30;0.15;;;;;;;12.76;100.00;98733.22;5005891;28;20545;-86
2021/05/22 13:21:36;;;;;;;2.75;0.50;;;;;;;12.25;100.00;98741.63;5001468;28;20056;-88
2021/05/22 13:25:06;;;;;;;0.10;0.10;;;;;;;12.30;100.00;98732.47;5002727;28;20056;-88
2021/05/22 13:28:19;;;;;;;0.38;0.20;;;;;;;12.31;100.00;98740.31;5010065;28;20049;-88
2021/05/22 13:31:29;;;;;;;0.45;0.20;;;;;;;12.49;100.00;98739.75;5023214;28;20055;-87
2021/05/22 13:34:41;;;;;;;2.15;0.13;;;;;;;12.73;100.00;98741.88;5022794;28;20052;-87
2021/05/22 13:37:45;;;;;;;0.95;0.10;;;;;;;12.58;100.00;98747.78;5020620;28;20510;-84
2021/05/22 13:40:49;;;;;;;1.35;0.10;;;;;;;12.34;100.00;98749.69;5032686;28;20052;-88
2021/05/22 13:43:53;;;;;;;0.30;0.20;;;;;;;12.01;100.00;98762.50;5021493;28;20053;-84
2021/05/22 13:46:57;;;;;;;0.80;0.30;;;;;;;11.76;100.00;98765.63;5033866;28;20056;-82
2021/05/22 13:50:00;;;;;;;0.20;0.10;;;;;;;11.57;100.00;98775.72;5034453;28;20410;-87
2021/05/22 13:53:04;;;;;;;1.35;0.20;;;;;;;11.47;100.00;98775.25;5021700;28;20044;-87
2021/05/22 13:56:07;;;;;;;0.35;0.10;;;;;;;11.68;100.00;98778.53;5020185;28;20056;-86
2021/05/22 13:59:11;;;;;;;1.15;0.25;;;;;;;11.81;100.00;98778.78;5020908;28;20068;-83
2021/05/22 14:02:15;;;;;;;0.20;0.20;;;;;;;12.08;100.00;98777.97;5033432;28;20053;-85
2021/05/22 14:05:19;;;;;;;0.40;0.40;;;;;;;12.24;100.00;98768.00;5031808;28;20057;-85
2021/05/22 14:08:23;;;;;;;0.20;0.20;;;;;;;12.41;100.00;98785.47;5033402;28;20060;-87
2021/05/22 14:11:26;;;;;;;3.25;0.93;;;;;;;12.15;100.00;98786.56;5021272;28;20056;-86
2021/05/22 14:14:30;;;;;;;0.30;0.22;;;;;;;12.01;100.00;98782.03;5021196;28;20053;-86
2021/05/22 14:17:36;;;;;;;0.17;0.17;;;;;;;11.99;100.00;98787.38;5020651;28;20420;-86
2021/05/22 14:20:39;;;;;;;0.43;0.30;;;;;;;11.99;100.00;98792.97;5021139;28;20117;-87
2021/05/22 14:23:43;;;;;;;0.52;0.10;;;;;;;11.96;100.00;98787.63;5020732;28;20516;-85
2021/05/22 14:26:47;;;;;;;0.10;0.00;;;;;;;11.83;100.00;98796.53;5032099;28;20540;-83
2021/05/22 14:29:51;;;;;;;0.20;0.20;;;;;;;11.75;100.00;98795.53;5032575;28;20060;-84
2021/05/22 14:32:54;;;;;;;2.20;0.20;;;;;;;11.71;100.00;98799.84;5008915;28;20052;-84
2021/05/22 14:35:58;;;;;;;0.55;0.30;;;;;;;11.60;100.00;98800.59;5020093;28;20425;-82